Time;durP1;ratioP1;P1;durP2;ratioP2;P2;SDS_P1;SDS_P2;PMS_P1;PMS_P2;Temp;Humidity;BMP_temperature;BMP_pressure;BME280_temperature;BME280_humidity;BME280_pressure;Samples;Min_cycle;Max_cycle;Signal;HPM_P1;HPM_P2
2022/06/07 00:02:13;;;;;;;10.63;3.58;;;;;;;19.50;100.00;100140.63;5048806;28;20195;-69
2022/06/07 00:04:41;;;;;;;6.28;4.25;;;;;;;19.71;100.00;100148.94;5048676;28;20200;-69
2022/06/07 00:07:10;;;;;;;8.18;3.80;;;;;;;20.07;100.00;100202.56;5048387;28;20615;-69
2022/06/07 00:09:37;;;;;;;3.60;3.30;;;;;;;19.94;100.00;100187.91;5048455;28;20204;-69
2022/06/07 00:12:05;;;;;;;4.13;2.78;;;;;;;19.76;100.00;100169.91;5048623;28;20214;-68
2022/06/07 00:14:32;;;;;;;4.75;3.10;;;;;;;19.71;100.00;100179.66;5048913;28;20606;-69
2022/06/07 00:16:59;;;;;;;6.60;2.90;;;;;;;19.59;100.00;100164.97;5011889;28;20234;-69
2022/06/07 00:19:26;;;;;;;3.78;2.70;;;;;;;19.69;100.00;100200.72;5028972;28;20212;-69
2022/06/07 00:21:53;;;;;;;2.70;2.50;;;;;;;19.68;100.00;100204.25;5044970;28;20298;-69
2022/06/07 00:24:21;;;;;;;3.10;2.90;;;;;;;19.75;100.00;100202.38;5024288;28;20205;-69
2022/06/07 00:26:48;;;;;;;3.78;2.50;;;;;;;19.71;100.00;100169.13;5090753;28;20198;-69
2022/06/07 00:29:15;;;;;;;2.72;2.47;;;;;;;19.80;100.00;100182.06;5091798;28;20194;-69
2022/06/07 00:31:43;;;;;;;2.60;2.40;;;;;;;19.89;100.00;100188.91;5091075;28;20194;-69
2022/06/07 00:34:11;;;;;;;4.40;2.83;;;;;;;19.75;100.00;100165.53;5090767;28;20206;-69
2022/06/07 00:36:38;;;;;;;5.03;2.22;;;;;;;19.98;100.00;100184.31;5091144;28;20239;-69
2022/06/07 00:39:05;;;;;;;2.95;2.30;;;;;;;20.04;100.00;100184.22;5091414;28;20194;-69
2022/06/07 00:41:34;;;;;;;2.90;2.70;;;;;;;20.10;100.00;100181.44;5089192;28;20210;-69
2022/06/07 00:44:27;;;;;;;3.63;3.00;;;;;;;19.94;100.00;100164.22;5055973;28;20198;-69
2022/06/07 00:46:58;;;;;;;5.03;2.92;;;;;;;19.90;100.00;100153.81;5071026;28;20253;-69
2022/06/07 00:49:27;;;;;;;3.67;3.22;;;;;;;19.68;100.00;100121.84;5035631;28;20584;-70
2022/06/07 00:51:54;;;;;;;4.05;3.75;;;;;;;20.06;100.00;100171.88;5089712;28;20591;-69
2022/06/07 00:54:22;;;;;;;4.00;3.70;;;;;;;19.91;100.00;100148.50;5094843;28;20679;-69
2022/06/07 00:56:50;;;;;;;4.57;4.20;;;;;;;19.66;100.00;100134.13;5095068;28;20205;-68
2022/06/07 00:59:18;;;;;;;4.70;4.18;;;;;;;19.78;100.00;100165.47;5094501;28;20232;-69
2022/06/07 01:01:45;;;;;;;4.57;4.25;;;;;;;19.73;100.00;100146.25;5094941;28;20205;-69
2022/06/07 01:04:12;;;;;;;5.03;4.63;;;;;;;19.87;100.00;100160.00;5076086;28;20202;-69
2022/06/07 01:12:10;;;;;;;4.43;4.10;;;;;;;19.83;100.00;100153.09;5094189;28;20258;-69
2022/06/07 01:14:37;;;;;;;6.60;5.22;;;;;;;19.78;100.00;100160.19;5085821;28;20229;-69
2022/06/07 01:17:04;;;;;;;7.78;4.70;;;;;;;19.64;100.00;100141.22;5094711;28;20194;-68
2022/06/07 01:19:31;;;;;;;5.63;5.13;;;;;;;19.57;100.00;100153.63;5094818;28;20574;-68
2022/06/07 01:21:59;;;;;;;4.25;3.95;;;;;;;19.42;100.00;100132.88;5094646;28;20202;-68
2022/06/07 01:24:26;;;;;;;4.38;3.97;;;;;;;19.33;100.00;100136.53;5094230;28;20203;-69
2022/06/07 01:26:53;;;;;;;4.97;4.57;;;;;;;19.35;100.00;100159.31;5093877;28;20198;-69
2022/06/07 01:29:20;;;;;;;6.65;4.68;;;;;;;19.28;100.00;100127.00;5094402;28;20222;-69
2022/06/07 01:31:47;;;;;;;5.78;5.20;;;;;;;19.43;100.00;100142.53;5077705;28;20281;-69
2022/06/07 01:34:14;;;;;;;5.28;4.75;;;;;;;19.55;100.00;100141.41;5094250;28;20202;-69
2022/06/07 01:36:41;;;;;;;19.17;5.20;;;;;;;19.51;100.00;100131.84;5094252;28;20202;-68
2022/06/07 01:41:57;;;;;;;7.28;5.25;;;;;;;19.36;100.00;100118.97;5094345;28;20575;-69
2022/06/07 01:44:26;;;;;;;10.75;5.82;;;;;;;19.38;100.00;100125.91;5094133;28;20566;-69
2022/06/07 01:46:54;;;;;;;5.70;5.28;;;;;;;19.12;100.00;100126.44;5093985;28;20198;-69
2022/06/07 01:49:23;;;;;;;6.55;5.95;;;;;;;18.99;100.00;100110.91;5094075;28;20225;-69
2022/06/07 01:51:51;;;;;;;10.32;6.05;;;;;;;19.08;100.00;100134.41;5094194;28;20198;-69
2022/06/07 01:54:20;;;;;;;5.53;5.00;;;;;;;19.20;100.00;100124.53;5093558;28;20202;-69
2022/06/07 01:56:47;;;;;;;5.30;4.80;;;;;;;19.10;100.00;100117.72;5093815;28;20202;-69
2022/06/07 01:59:14;;;;;;;5.38;4.90;;;;;;;19.14;100.00;100124.66;5093831;28;20234;-69
2022/06/07 02:01:42;;;;;;;5.40;4.88;;;;;;;19.19;100.00;100130.66;5092971;28;20190;-69
2022/06/07 02:04:10;;;;;;;5.38;4.88;;;;;;;19.07;100.00;100127.41;5094067;28;20198;-69
2022/06/07 02:06:38;;;;;;;6.35;5.82;;;;;;;18.92;100.00;100128.56;5093643;28;20198;-69
2022/06/07 02:09:06;;;;;;;6.28;5.57;;;;;;;18.94;100.00;100125.94;5093908;28;20218;-69
2022/06/07 02:11:35;;;;;;;5.90;5.10;;;;;;;18.95;100.00;100109.25;5058527;28;20206;-69
2022/06/07 02:14:02;;;;;;;6.72;6.05;;;;;;;19.03;100.00;100125.75;5093376;28;20199;-69
2022/06/07 02:16:29;;;;;;;4.53;4.15;;;;;;;19.04;100.00;100135.38;5057645;28;20206;-69
2022/06/07 02:18:56;;;;;;;5.47;4.35;;;;;;;19.04;100.00;100141.50;5093884;28;20202;-69
2022/06/07 02:21:25;;;;;;;5.07;4.57;;;;;;;19.08;100.00;100135.28;5057287;28;20206;-69
2022/06/07 02:23:52;;;;;;;8.02;4.65;;;;;;;18.84;100.00;100104.19;5093437;28;20201;-69
2022/06/07 02:26:23;;;;;;;8.88;5.05;;;;;;;18.82;100.00;100098.09;5093089;28;20202;-69
2022/06/07 02:28:55;;;;;;;6.15;4.78;;;;;;;19.00;100.00;100137.19;5092670;28;20310;-69
2022/06/07 02:31:25;;;;;;;4.97;4.47;;;;;;;18.88;100.00;100112.88;5093267;28;20198;-69
2022/06/07 02:33:52;;;;;;;5.88;4.40;;;;;;;18.84;100.00;100119.94;5093512;28;20210;-70
2022/06/07 02:36:19;;;;;;;5.95;4.43;;;;;;;18.84;100.00;100114.69;5093148;28;20714;-69
2022/06/07 02:38:46;;;;;;;5.68;5.07;;;;;;;19.03;100.00;100137.13;5092883;28;20198;-69
2022/06/07 02:41:18;;;;;;;6.68;5.50;;;;;;;19.08;100.00;100139.69;5092748;28;20206;-69
2022/06/07 02:43:45;;;;;;;6.78;5.88;;;;;;;19.00;100.00;100131.94;5088427;28;20693;-70
2022/06/07 02:46:13;;;;;;;9.27;5.25;;;;;;;19.01;100.00;100120.53;5092888;28;20201;-68
2022/06/07 02:48:40;;;;;;;5.45;4.82;;;;;;;19.04;100.00;100143.25;5072972;28;20234;-69
2022/06/07 02:51:07;;;;;;;5.68;5.18;;;;;;;18.99;100.00;100131.94;5088068;28;20260;-69
2022/06/07 02:53:34;;;;;;;6.57;4.93;;;;;;;18.65;100.00;100100.16;5091984;28;21306;-69
2022/06/07 02:56:01;;;;;;;5.25;4.75;;;;;;;18.98;100.00;100146.00;5091343;28;20198;-69
2022/06/07 02:58:28;;;;;;;5.35;4.85;;;;;;;18.71;100.00;100113.19;5056083;28;20195;-69
2022/06/07 03:00:58;;;;;;;5.07;4.55;;;;;;;18.90;100.00;100134.75;5091460;28;20320;-69
2022/06/07 03:03:26;;;;;;;8.60;5.43;;;;;;;18.94;100.00;100131.19;5091343;28;20194;-69
2022/06/07 03:05:53;;;;;;;7.30;5.13;;;;;;;18.71;100.00;100098.28;5091695;28;20210;-69
2022/06/07 03:08:21;;;;;;;5.57;5.07;;;;;;;18.87;100.00;100125.13;5091544;28;21073;-69
2022/06/07 03:10:48;;;;;;;5.63;4.82;;;;;;;19.18;100.00;100157.00;5092550;28;20209;-69
2022/06/07 03:13:16;;;;;;;4.80;4.38;;;;;;;19.37;100.00;100142.59;5092229;28;20206;-69
2022/06/07 03:15:44;;;;;;;10.43;4.70;;;;;;;19.82;100.00;100166.25;5092204;28;20194;-69
2022/06/07 03:18:11;;;;;;;5.22;4.45;;;;;;;20.24;100.00;100166.19;5092262;28;20206;-69
2022/06/07 03:20:42;;;;;;;6.22;4.15;;;;;;;20.84;100.00;100176.16;5092121;28;20198;-68
2022/06/07 03:23:09;;;;;;;5.13;3.97;;;;;;;21.19;100.00;100164.72;5092154;28;20263;-69
2022/06/07 03:25:35;;;;;;;4.13;3.58;;;;;;;21.63;100.00;100192.53;5091460;28;20236;-69
2022/06/07 03:28:03;;;;;;;4.72;3.58;;;;;;;21.96;100.00;100199.53;5083777;28;20226;-68
2022/06/07 03:30:30;;;;;;;4.20;3.80;;;;;;;21.89;100.00;100171.53;5091551;28;20202;-68
2022/06/07 03:32:58;;;;;;;4.63;4.00;;;;;;;22.26;100.00;100196.88;5091499;28;20209;-68
2022/06/07 03:35:25;;;;;;;11.88;4.50;;;;;;;22.64;100.00;100191.25;5091498;28;20194;-69
2022/06/07 03:37:53;;;;;;;6.00;4.68;;;;;;;23.38;100.00;100187.84;5072654;28;20210;-69
2022/06/07 03:43:00;;;;;;;5.55;4.63;;;;;;;24.91;100.00;100209.34;5091537;28;20206;-68
2022/06/07 03:45:27;;;;;;;6.50;4.45;;;;;;;25.21;100.00;100148.78;5090922;28;20202;-69
2022/06/07 03:47:54;;;;;;;4.47;4.07;;;;;;;26.29;95.15;100200.50;5090744;28;20207;-69
2022/06/07 03:50:21;;;;;;;3.92;3.53;;;;;;;26.67;88.78;100201.34;5090623;28;20579;-70
2022/06/07 03:52:48;;;;;;;4.35;3.63;;;;;;;26.80;84.86;100207.75;5091521;28;20208;-69
2022/06/07 03:55:17;;;;;;;5.75;3.80;;;;;;;27.20;82.90;100189.81;5091298;28;20202;-70
2022/06/07 03:57:44;;;;;;;5.35;4.32;;;;;;;27.62;79.62;100205.38;5090842;28;20194;-70
2022/06/07 04:00:12;;;;;;;7.57;3.58;;;;;;;28.30;74.33;100213.19;5091184;28;20225;-70
2022/06/07 04:02:39;;;;;;;4.53;3.88;;;;;;;28.80;70.57;100215.69;5090890;28;20206;-70
2022/06/07 04:05:06;;;;;;;4.68;4.15;;;;;;;28.55;67.78;100156.63;5091156;28;20214;-70
2022/06/07 04:10:19;;;;;;;5.13;3.72;;;;;;;29.53;63.41;100219.38;5091143;28;20664;-70
2022/06/07 04:12:46;;;;;;;3.75;3.40;;;;;;;29.08;62.48;100144.63;5091327;28;20186;-70
2022/06/07 04:15:13;;;;;;;4.00;3.70;;;;;;;29.64;61.18;100200.00;5091030;28;20568;-70
2022/06/07 04:17:40;;;;;;;6.03;4.15;;;;;;;29.53;61.75;100219.38;5091161;28;20197;-70
2022/06/07 04:20:10;;;;;;;4.20;3.80;;;;;;;29.19;60.93;100220.50;5091330;28;20208;-70
2022/06/07 04:22:37;;;;;;;4.28;3.83;;;;;;;29.00;61.78;100212.72;5072634;28;20202;-70
2022/06/07 04:25:04;;;;;;;4.97;4.57;;;;;;;28.69;63.54;100226.13;5055046;28;20206;-70
2022/06/07 04:27:33;;;;;;;8.25;3.92;;;;;;;28.83;63.56;100222.66;5090483;28;20224;-70
2022/06/07 04:30:00;;;;;;;4.50;3.63;;;;;;;29.21;62.86;100201.72;5055601;28;20304;-71
2022/06/07 04:32:27;;;;;;;5.88;3.67;;;;;;;28.76;63.71;100210.59;5071734;28;20313;-70
2022/06/07 04:34:54;;;;;;;5.90;3.90;;;;;;;29.23;62.38;100231.88;5091226;28;20202;-71
2022/06/07 04:37:21;;;;;;;5.88;3.83;;;;;;;29.25;61.77;100229.97;5090765;28;20201;-70
2022/06/07 04:39:48;;;;;;;4.22;3.67;;;;;;;28.75;63.01;100224.94;5090517;28;20189;-71
2022/06/07 04:42:15;;;;;;;5.07;3.92;;;;;;;28.54;63.21;100202.94;5090845;28;20228;-71
2022/06/07 04:44:43;;;;;;;6.28;3.90;;;;;;;29.25;61.50;100238.00;5091227;28;20190;-71
2022/06/07 04:47:10;;;;;;;6.10;4.05;;;;;;;29.51;57.63;100231.97;5090726;28;20189;-70
2022/06/07 04:49:37;;;;;;;4.90;4.00;;;;;;;29.83;55.70;100238.88;5090948;28;20217;-70
2022/06/07 04:52:04;;;;;;;3.90;3.55;;;;;;;29.85;55.21;100237.00;5090793;28;20196;-69
2022/06/07 04:54:31;;;;;;;4.40;3.80;;;;;;;30.15;55.27;100238.69;5090754;28;20205;-69
2022/06/07 04:56:58;;;;;;;5.90;3.53;;;;;;;29.89;55.68;100230.53;5090614;28;20209;-69
2022/06/07 04:59:25;;;;;;;6.45;3.90;;;;;;;29.80;55.00;100243.53;5090385;28;20221;-69
2022/06/07 05:01:53;;;;;;;5.80;3.17;;;;;;;29.51;56.12;100237.31;5055388;28;20236;-70
2022/06/07 05:04:20;;;;;;;14.98;10.65;;;;;;;30.08;53.74;100250.75;5090697;28;20201;-70
2022/06/07 05:06:47;;;;;;;9.75;3.55;;;;;;;30.25;50.52;100250.56;5090586;28;20201;-70
2022/06/07 05:09:17;;;;;;;6.97;3.00;;;;;;;30.52;50.94;100259.53;5088686;28;20738;-68
2022/06/07 05:11:47;;;;;;;14.18;3.75;;;;;;;30.13;52.64;100245.97;5083506;28;20232;-69
2022/06/07 05:14:14;;;;;;;8.65;3.50;;;;;;;30.42;52.54;100258.41;5087131;28;20707;-70
2022/06/07 05:16:42;;;;;;;9.55;3.55;;;;;;;30.64;52.02;100274.81;5090259;28;20210;-69
2022/06/07 05:19:12;;;;;;;11.63;4.53;;;;;;;30.65;53.61;100263.13;5079837;28;20285;-71
2022/06/07 05:21:40;;;;;;;6.57;3.05;;;;;;;30.02;54.68;100271.59;5090483;28;20201;-71
2022/06/07 05:24:07;;;;;;;3.10;2.80;;;;;;;30.29;52.66;100270.78;5090736;28;20206;-70
2022/06/07 05:26:38;;;;;;;6.10;3.20;;;;;;;30.31;49.61;100271.56;5065840;28;20194;-70
2022/06/07 05:29:06;;;;;;;3.47;3.17;;;;;;;30.31;48.48;100260.88;5082720;28;20240;-72
2022/06/07 05:31:33;;;;;;;7.00;2.78;;;;;;;29.98;51.01;100237.97;5087171;28;20675;-70
2022/06/07 05:34:01;;;;;;;9.50;3.10;;;;;;;29.89;51.61;100241.22;5067456;28;20198;-69
2022/06/07 05:36:30;;;;;;;8.73;3.47;;;;;;;30.53;50.54;100265.75;5080605;28;20259;-70
2022/06/07 05:38:56;;;;;;;9.93;3.35;;;;;;;30.51;48.90;100276.53;5079293;28;20210;-70
2022/06/07 05:41:25;;;;;;;16.88;3.35;;;;;;;29.92;50.58;100243.69;5057975;28;20198;-71
2022/06/07 05:43:52;;;;;;;6.38;3.15;;;;;;;30.07;50.42;100263.28;5084466;28;20936;-68
2022/06/07 05:46:19;;;;;;;9.10;3.10;;;;;;;29.74;50.67;100266.19;5055791;28;20208;-70
2022/06/07 05:48:46;;;;;;;9.23;3.60;;;;;;;29.91;50.71;100267.84;5088603;28;20230;-70
2022/06/07 05:51:13;;;;;;;13.18;3.58;;;;;;;29.02;51.97;100240.19;5056745;28;20198;-69
2022/06/07 05:53:42;;;;;;;7.25;2.70;;;;;;;29.51;50.98;100274.72;5092954;28;20311;-70
2022/06/07 05:56:11;;;;;;;4.22;3.33;;;;;;;28.71;51.39;100272.28;5092436;28;20204;-69
2022/06/07 05:58:38;;;;;;;6.32;3.22;;;;;;;27.69;52.47;100271.59;5087314;28;20210;-70
2022/06/07 06:01:07;;;;;;;10.07;4.50;;;;;;;27.09;53.62;100201.88;5087239;28;20241;-69
2022/06/07 06:03:35;;;;;;;5.82;4.45;;;;;;;27.28;55.51;100271.03;5092082;28;20213;-69
2022/06/07 06:06:02;;;;;;;5.53;4.38;;;;;;;27.10;54.58;100248.00;5074205;28;20599;-69
2022/06/07 06:11:20;;;;;;;9.98;3.53;;;;;;;27.90;55.92;100259.81;5051527;28;20595;-70
2022/06/07 06:13:47;;;;;;;7.00;2.75;;;;;;;28.05;53.36;100266.97;5092970;28;20210;-70
2022/06/07 06:16:18;;;;;;;4.70;3.13;;;;;;;27.76;54.05;100265.00;5093325;28;20198;-71
2022/06/07 06:18:45;;;;;;;4.70;3.15;;;;;;;28.13;52.02;100265.75;5093240;28;20245;-69
2022/06/07 06:21:12;;;;;;;5.65;3.10;;;;;;;27.92;52.11;100265.94;5087503;28;20294;-70
2022/06/07 06:23:40;;;;;;;8.25;3.50;;;;;;;27.86;52.31;100266.22;5090449;28;20198;-70
2022/06/07 06:26:08;;;;;;;8.50;3.40;;;;;;;27.77;52.01;100239.22;5084365;28;20209;-70
2022/06/07 06:28:37;;;;;;;7.47;3.33;;;;;;;27.40;52.64;100266.88;5089836;28;20618;-69
2022/06/07 06:31:05;;;;;;;7.75;3.08;;;;;;;27.08;53.37;100256.06;5092291;28;20202;-69
2022/06/07 06:33:33;;;;;;;15.93;3.45;;;;;;;26.75;52.50;100246.19;5074303;28;20294;-69
2022/06/07 06:36:00;;;;;;;7.55;2.90;;;;;;;26.44;53.98;100262.75;5078983;28;20680;-70
2022/06/07 06:38:27;;;;;;;6.40;2.60;;;;;;;26.00;56.47;100263.00;5092584;28;20693;-68
2022/06/07 06:40:53;;;;;;;4.72;2.53;;;;;;;25.90;58.11;100259.00;5088787;28;20206;-69
2022/06/07 06:43:20;;;;;;;6.80;3.22;;;;;;;25.47;59.14;100256.50;5054270;28;20193;-69
2022/06/07 06:45:49;;;;;;;2.75;2.45;;;;;;;25.40;60.88;100255.03;5086345;28;20205;-69
2022/06/07 06:48:16;;;;;;;9.45;2.97;;;;;;;25.38;60.40;100249.78;5091696;28;20210;-69
2022/06/07 06:50:44;;;;;;;3.20;2.60;;;;;;;25.33;58.44;100259.72;5084910;28;20222;-69
2022/06/07 06:53:11;;;;;;;5.22;2.20;;;;;;;24.76;62.92;100247.06;5089120;28;20234;-73
2022/06/07 06:55:43;;;;;;;2.42;2.22;;;;;;;24.74;61.81;100254.22;5092193;28;20198;-69
2022/06/07 06:58:10;;;;;;;6.60;2.80;;;;;;;24.99;62.52;100257.63;5092512;28;20202;-70
2022/06/07 07:00:37;;;;;;;6.03;3.30;;;;;;;24.84;63.67;100245.00;5092742;28;20225;-70
2022/06/07 07:03:05;;;;;;;6.13;2.85;;;;;;;25.32;68.52;100254.50;5092307;28;20202;-70
2022/06/07 07:05:35;;;;;;;2.72;2.42;;;;;;;25.65;67.38;100250.41;5056669;28;20190;-69
2022/06/07 07:08:02;;;;;;;3.55;3.28;;;;;;;25.55;62.85;100238.47;5092099;28;20205;-69
2022/06/07 07:10:29;;;;;;;3.97;3.17;;;;;;;25.23;62.57;100241.59;5092331;28;20217;-69
2022/06/07 07:12:56;;;;;;;3.30;3.00;;;;;;;24.86;63.55;100237.00;5092443;28;20738;-69
2022/06/07 07:15:23;;;;;;;3.70;2.75;;;;;;;25.07;62.62;100242.28;5092013;28;20201;-70
2022/06/07 07:17:49;;;;;;;2.75;2.55;;;;;;;24.79;64.94;100166.50;5092236;28;20210;-69
2022/06/07 07:20:18;;;;;;;3.25;2.53;;;;;;;25.27;62.88;100211.34;5092407;28;20190;-70
2022/06/07 07:22:44;;;;;;;4.38;2.75;;;;;;;25.05;65.49;100245.91;5092451;28;20198;-69
2022/06/07 07:25:12;;;;;;;3.17;2.97;;;;;;;24.68;65.93;100244.72;5092180;28;20202;-70
2022/06/07 07:27:38;;;;;;;6.05;2.72;;;;;;;24.98;66.74;100237.34;5092189;28;20267;-70
2022/06/07 07:30:07;;;;;;;2.92;2.63;;;;;;;24.92;67.50;100242.91;5091907;28;20230;-70
2022/06/07 07:32:34;;;;;;;3.88;2.65;;;;;;;23.48;67.82;100022.50;5092070;28;20578;-70
2022/06/07 07:35:01;;;;;;;5.82;3.03;;;;;;;24.82;67.75;100230.03;5056495;28;20194;-70
2022/06/07 07:37:29;;;;;;;4.03;2.60;;;;;;;25.09;68.77;100229.78;5091694;28;20198;-69
2022/06/07 07:39:56;;;;;;;2.85;2.65;;;;;;;24.72;67.47;100229.56;5091724;28;20198;-70
2022/06/07 07:42:23;;;;;;;6.95;2.63;;;;;;;25.01;68.14;100223.94;5092039;28;20202;-70
2022/06/07 07:44:50;;;;;;;4.30;2.53;;;;;;;24.35;69.27;100177.13;5091595;28;20213;-70
2022/06/07 07:47:17;;;;;;;2.72;2.63;;;;;;;24.74;67.49;100205.63;5091555;28;20886;-70
2022/06/07 07:49:44;;;;;;;4.18;2.80;;;;;;;24.97;67.40;100213.53;5091421;28;20638;-70
2022/06/07 07:52:11;;;;;;;5.03;2.72;;;;;;;25.29;66.89;100189.13;5091321;28;20209;-70
2022/06/07 07:54:39;;;;;;;2.55;2.45;;;;;;;25.64;64.48;100219.47;5072951;28;20229;-70
2022/06/07 07:57:06;;;;;;;4.68;2.60;;;;;;;25.63;64.20;100209.78;5091206;28;20574;-69
2022/06/07 07:59:33;;;;;;;4.30;2.70;;;;;;;25.18;63.73;100191.41;5090586;28;21271;-70
2022/06/07 08:02:00;;;;;;;2.80;2.60;;;;;;;25.23;63.26;100202.66;5088705;28;20240;-69
2022/06/07 08:04:27;;;;;;;2.47;2.28;;;;;;;24.81;62.65;100123.06;5044632;28;20202;-69
2022/06/07 08:06:54;;;;;;;3.22;2.40;;;;;;;25.34;61.70;100207.50;5091018;28;20255;-69
2022/06/07 08:09:22;;;;;;;3.05;2.15;;;;;;;25.13;61.61;100146.47;5090961;28;20202;-69
2022/06/07 08:11:50;;;;;;;3.25;2.00;;;;;;;25.33;59.96;100179.25;5091348;28;20193;-69
2022/06/07 08:14:19;;;;;;;2.53;2.33;;;;;;;25.57;60.21;100204.75;5091530;28;20207;-69
2022/06/07 08:16:47;;;;;;;2.30;2.10;;;;;;;25.52;61.02;100196.97;5086814;28;20641;-69
2022/06/07 08:19:14;;;;;;;2.38;2.17;;;;;;;25.29;60.75;100198.91;5090488;28;20208;-68
2022/06/07 08:21:41;;;;;;;3.22;2.33;;;;;;;25.37;59.17;100194.94;5091314;28;20206;-68
2022/06/07 08:24:09;;;;;;;2.35;2.25;;;;;;;25.91;58.50;100209.38;5090942;28;20201;-68
2022/06/07 08:26:36;;;;;;;3.10;2.58;;;;;;;26.18;57.12;100205.50;5091278;28;20209;-68
2022/06/07 08:29:04;;;;;;;3.40;2.53;;;;;;;26.03;57.79;100193.75;5090513;28;20206;-69
2022/06/07 08:31:33;;;;;;;2.65;2.05;;;;;;;26.14;56.68;100194.13;5090642;28;20301;-69
2022/06/07 08:39:31;;;;;;;1.77;1.67;;;;;;;26.16;56.23;100204.66;5090904;28;20205;-69
2022/06/07 08:42:01;;;;;;;1.90;1.80;;;;;;;26.67;54.60;100169.41;5091295;28;20615;-71
2022/06/07 08:44:36;;;;;;;2.10;2.00;;;;;;;27.39;53.69;100155.97;5091239;28;20194;-68
2022/06/07 08:47:11;;;;;;;2.75;2.20;;;;;;;26.97;53.01;100173.22;5090667;28;20255;-70
2022/06/07 08:49:38;;;;;;;2.50;2.15;;;;;;;26.45;53.59;100121.72;5062292;28;20218;-68
2022/06/07 08:52:14;;;;;;;2.20;2.08;;;;;;;27.14;53.40;100185.69;5090236;28;20225;-68
2022/06/07 08:54:42;;;;;;;3.63;2.10;;;;;;;27.33;54.52;100164.25;5090732;28;20200;-68
2022/06/07 08:57:19;;;;;;;2.05;1.90;;;;;;;27.75;55.43;100183.34;5090493;28;20201;-68
2022/06/07 08:59:47;;;;;;;2.35;2.15;;;;;;;27.69;51.96;100186.31;5090558;28;20233;-68
2022/06/07 09:02:30;;;;;;;2.30;2.10;;;;;;;27.90;52.58;100171.84;5090911;28;20199;-68
2022/06/07 09:04:58;;;;;;;4.70;2.10;;;;;;;27.79;50.60;100166.22;5091302;28;20206;-67
2022/06/07 09:07:26;;;;;;;5.43;2.17;;;;;;;27.72;51.04;100166.66;5087537;28;20214;-68
2022/06/07 09:12:56;;;;;;;4.07;2.33;;;;;;;27.77;51.45;100160.13;5093340;28;20208;-68
2022/06/07 09:15:28;;;;;;;2.42;2.08;;;;;;;27.52;51.47;100154.41;5088023;28;20202;-68
2022/06/07 09:17:58;;;;;;;4.40;2.15;;;;;;;27.81;50.85;100132.38;5081337;28;20198;-68
2022/06/07 09:20:27;;;;;;;3.50;2.10;;;;;;;27.82;50.49;100150.09;5093753;28;20234;-68
2022/06/07 09:22:58;;;;;;;3.15;2.50;;;;;;;28.29;50.81;100152.78;5093809;28;20202;-68
2022/06/07 09:25:28;;;;;;;5.22;2.10;;;;;;;28.69;50.62;100131.84;5093842;28;20202;-68
2022/06/07 09:27:57;;;;;;;2.17;1.90;;;;;;;28.58;48.49;100151.13;5088003;28;20662;-68
2022/06/07 09:30:29;;;;;;;2.58;2.25;;;;;;;28.59;49.24;100134.16;5066956;28;20237;-68
2022/06/07 09:32:56;;;;;;;1.88;1.77;;;;;;;28.51;48.29;100145.28;5093978;28;20198;-68
2022/06/07 09:35:33;;;;;;;2.83;2.30;;;;;;;27.75;49.26;100139.84;5093724;28;20670;-68
2022/06/07 09:38:03;;;;;;;2.17;2.08;;;;;;;28.14;49.18;100120.81;5088835;28;20206;-68
2022/06/07 09:40:32;;;;;;;2.40;2.20;;;;;;;28.58;47.72;100121.75;5085021;28;20214;-68
2022/06/07 09:43:08;;;;;;;3.83;2.40;;;;;;;28.75;46.97;100096.81;5093693;28;20210;-68
2022/06/07 09:45:48;;;;;;;5.63;2.38;;;;;;;27.52;47.72;100056.69;5093794;28;20237;-67
2022/06/07 09:48:28;;;;;;;2.80;2.08;;;;;;;27.51;49.34;100110.03;5093368;28;20212;-68
2022/06/07 09:50:58;;;;;;;2.63;2.42;;;;;;;27.00;50.00;100095.03;5080834;28;20230;-69
2022/06/07 09:53:25;;;;;;;2.80;2.60;;;;;;;27.08;50.20;100112.28;5092245;28;20190;-68
2022/06/07 09:56:06;;;;;;;2.38;2.17;;;;;;;27.22;50.13;100113.41;5093396;28;20203;-69
2022/06/07 09:58:44;;;;;;;2.75;2.53;;;;;;;27.20;50.58;100116.13;5093124;28;20765;-68
2022/06/07 10:01:19;;;;;;;7.82;3.10;;;;;;;27.45;50.24;100099.72;5093264;28;20739;-69
2022/06/07 10:03:51;;;;;;;3.10;2.20;;;;;;;27.91;49.80;100108.72;5079333;28;20263;-69
2022/06/07 10:06:27;;;;;;;2.40;2.20;;;;;;;28.39;47.00;100103.31;5074253;28;20202;-69
2022/06/07 10:09:09;;;;;;;2.60;2.45;;;;;;;28.06;47.04;100102.53;5079231;28;20194;-69
2022/06/07 10:11:41;;;;;;;2.47;2.28;;;;;;;28.33;47.19;100105.47;5092783;28;20630;-67
2022/06/07 10:14:32;;;;;;;5.15;2.00;;;;;;;28.66;45.11;100034.13;5092678;28;20227;-68
2022/06/07 10:17:31;;;;;;;8.80;2.30;;;;;;;28.62;46.15;100096.63;5092781;28;20198;-68
2022/06/07 10:20:07;;;;;;;2.55;2.40;;;;;;;28.55;47.09;100097.94;5092534;28;20616;-69
2022/06/07 10:22:50;;;;;;;2.55;2.30;;;;;;;29.03;46.29;100097.72;5092223;28;20213;-69
2022/06/07 10:25:20;;;;;;;2.38;2.20;;;;;;;29.25;45.00;100091.06;5092568;28;20259;-70
2022/06/07 10:28:03;;;;;;;3.97;2.38;;;;;;;29.47;44.41;100086.97;5074055;28;20202;-70
2022/06/07 10:30:40;;;;;;;2.28;2.13;;;;;;;29.50;45.27;100086.78;5092421;28;20233;-70
2022/06/07 10:33:31;;;;;;;3.10;2.30;;;;;;;29.89;46.08;100072.75;5057238;28;20209;-69
2022/06/07 10:36:08;;;;;;;3.45;2.55;;;;;;;29.59;44.26;100041.72;5092171;28;20586;-70
2022/06/07 10:38:49;;;;;;;2.70;2.10;;;;;;;30.05;44.63;100066.38;5092206;28;20201;-70
2022/06/07 10:41:27;;;;;;;2.00;1.90;;;;;;;30.05;43.31;100064.56;5078267;28;20205;-70
2022/06/07 10:44:03;;;;;;;6.43;1.90;;;;;;;29.67;43.43;100061.69;5092388;28;20601;-69
2022/06/07 10:46:31;;;;;;;2.97;2.67;;;;;;;29.76;42.52;100050.38;5079210;28;20197;-69
2022/06/07 10:49:07;;;;;;;2.60;2.10;;;;;;;29.70;43.94;100042.78;5092007;28;20678;-69
2022/06/07 10:54:29;;;;;;;2.88;2.55;;;;;;;28.72;44.42;100055.13;5091809;28;20309;-69
2022/06/07 10:57:04;;;;;;;2.42;2.30;;;;;;;29.20;43.84;100053.09;5091927;28;20210;-69
2022/06/07 10:59:31;;;;;;;5.55;2.53;;;;;;;29.03;44.49;100044.31;5075541;28;20233;-69
2022/06/07 11:02:04;;;;;;;3.13;2.50;;;;;;;29.05;44.33;100046.88;5071948;28;20356;-69
2022/06/07 11:10:18;;;;;;;2.38;2.17;;;;;;;28.33;48.03;100052.09;5071534;28;20241;-69
2022/06/07 11:12:52;;;;;;;3.10;2.13;;;;;;;28.45;47.73;100046.06;5071495;28;20187;-69
2022/06/07 11:15:26;;;;;;;2.30;2.20;;;;;;;28.10;50.42;100047.25;5071545;28;20755;-69
2022/06/07 11:18:04;;;;;;;2.67;2.50;;;;;;;27.71;50.74;100040.56;5053328;28;20202;-69
2022/06/07 11:20:34;;;;;;;3.15;2.85;;;;;;;27.47;51.05;100029.44;5071649;28;20198;-69
2022/06/07 11:23:09;;;;;;;5.28;2.47;;;;;;;27.28;50.66;100011.88;5071462;28;20213;-69
2022/06/07 11:25:39;;;;;;;2.40;2.30;;;;;;;27.56;51.26;100015.63;5071161;28;20640;-70
2022/06/07 11:28:11;;;;;;;3.03;2.78;;;;;;;27.40;51.67;100017.38;5020036;28;20763;-70
2022/06/07 11:30:46;;;;;;;7.50;3.25;;;;;;;27.43;52.95;100008.38;5071277;28;20229;-70
2022/06/07 11:33:38;;;;;;;7.55;2.92;;;;;;;27.76;50.94;100025.16;5071235;28;20586;-69
2022/06/07 11:36:23;;;;;;;5.45;2.95;;;;;;;27.88;50.86;100019.13;5071121;28;20251;-70
2022/06/07 11:39:01;;;;;;;4.18;3.72;;;;;;;27.91;52.21;100015.44;5070927;28;20244;-70
2022/06/07 11:41:47;;;;;;;5.00;3.83;;;;;;;28.14;51.43;100004.34;5070997;28;20584;-70
2022/06/07 11:44:58;;;;;;;5.35;3.72;;;;;;;28.39;50.68;100012.63;5070911;28;20289;-69
2022/06/07 11:47:34;;;;;;;4.05;3.58;;;;;;;28.27;50.67;100005.34;5071122;28;20746;-71
2022/06/07 11:50:28;;;;;;;3.28;2.97;;;;;;;28.44;48.70;100010.53;5070954;28;20194;-71
2022/06/07 11:53:27;;;;;;;2.63;2.53;;;;;;;28.59;49.27;100006.09;5028553;28;20258;-70
2022/06/07 11:56:03;;;;;;;5.25;3.50;;;;;;;28.89;48.83;100009.59;5028368;28;20291;-69
2022/06/07 11:58:57;;;;;;;5.22;4.25;;;;;;;28.91;49.35;100002.34;5028423;28;20253;-70
2022/06/07 12:01:35;;;;;;;5.00;4.60;;;;;;;29.16;48.20;100003.47;5028703;28;20234;-71
2022/06/07 12:04:26;;;;;;;9.00;5.20;;;;;;;29.69;49.35;99998.28;5028641;28;20200;-69
2022/06/07 12:06:53;;;;;;;8.73;3.95;;;;;;;29.72;47.13;99990.06;5028560;28;20211;-70
2022/06/07 12:09:22;;;;;;;4.53;2.75;;;;;;;29.33;47.96;99989.94;5028442;28;20203;-70